Nearby METAR Reports

 

KLXT - Lees Summit Muni, Missouri, USA
Distance from station: E 5mi, 9km
Updated: Sun, 28-May-2017 11:53pm CDT
Clear
Clear
 Wind from W
Wind: W 3 mph , 6 km/h
Temperature: 64°F , 18°C
Dew Point: 52°F , 11°C
Humidity: 64%
Barometer: 29.93 inHg , 1013.5 hPa
Clouds: Clear
Visibility: 10 miles , 16 km
2017/05/29 04:53 KLXT 290453Z AUTO 27003KT 10SM CLR 18/11 A2993 RMK AO2 SLP127 T01830111
KMKC - Kansas City/Dntn, Missouri, USA
Distance from station: NW 12mi, 19km
Updated: Sun, 28-May-2017 11:54pm CDT
Clear
Clear
 Wind from calm
Wind: Calm
Temperature: 66°F , 19°C
Dew Point: 55°F , 13°C
Humidity: 68%
Barometer: 29.91 inHg , 1012.9 hPa
Clouds: Clear
Visibility: 10 miles , 16 km
2017/05/29 04:54 KMKC 290454Z 00000KT 10SM CLR 19/13 A2991 RMK AO2 SLP121 T01890128
 
KIXD - Olathe/Industria, Kansas, USA
Distance from station: WSW 25mi, 41km
Updated: Sun, 28-May-2017 11:53pm CDT
Clear
Clear
 Wind from W
Wind: W 5 mph , 7 km/h
Temperature: 64°F , 18°C
Dew Point: 52°F , 11°C
Humidity: 64%
Barometer: 29.94 inHg , 1013.9 hPa
Clouds: Clear
Visibility: 10 miles , 16 km
2017/05/29 04:53 KIXD 290453Z AUTO 28004KT 10SM CLR 18/11 A2994 RMK AO2 SLP128 T01780106 $
KMCI - Kansas City/Intl, Missouri, USA
Distance from station: NW 26mi, 42km
Updated: Sun, 28-May-2017 11:53pm CDT
Clear
Clear
 Wind from N
Wind: N 7 mph , 11 km/h
Temperature: 64°F , 18°C
Dew Point: 48°F , 9°C
Humidity: 56%
Barometer: 29.92 inHg , 1013.2 hPa
Clouds: Clear
Visibility: 10 miles , 16 km
2017/05/29 04:53 KMCI 290453Z 35006KT 10SM CLR 18/09 A2992 RMK AO2 SLP123 T01830089 $
 
KRCM - Warrensburg Skyh, Missouri, USA
Distance from station: ESE 38mi, 62km
Updated: Mon, 29-May-2017 12:35am CDT
Clear
Clear
 Wind from SSE
Wind: SSE 6 mph , 9 km/h
Temperature: 57°F , 14°C
Dew Point: 54°F , 12°C
Humidity: 88%
Barometer: 29.95 inHg , 1014.2 hPa
Clouds: Clear
Visibility: 10 miles , 16 km
2017/05/29 05:35 KRCM 290535Z AUTO 16005KT 10SM CLR 14/12 A2995 RMK AO2
KLWC - Lawrence, Kansas, USA
Distance from station: W 40mi, 65km
Updated: Sun, 28-May-2017 11:52pm CDT
Clear
Clear
 Wind from NW
Wind: NW 6 mph , 9 km/h
Temperature: 59°F , 15°C
Dew Point: 55°F , 13°C
Humidity: 88%
Barometer: 29.93 inHg , 1013.5 hPa
Clouds: Clear
Visibility: 10 miles , 16 km
2017/05/29 04:52 KLWC 290452Z AUTO 31005KT 10SM CLR 15/13 A2993 RMK AO2 SLP129 T01500128
 
KSZL - Whiteman Afb, Missouri, USA
Distance from station: ESE 53mi, 86km
Updated: Sun, 28-May-2017 11:58pm CDT
Clear
Clear
 Wind from SSW
Wind: SSW 8 mph , 13 km/h
Temperature: 61°F , 16°C
Dew Point: 57°F , 14°C
Humidity: 88%
Barometer: 29.91 inHg , 1012.9 hPa
Clouds: Clear
Visibility: 10 miles , 16 km
2017/05/29 04:58 KSZL 290458Z AUTO 21007KT 10SM CLR 16/14 A2991 RMK AO2 SLP127 T01570142 $
KSTJ - St. Joseph, Missouri, USA
Distance from station: NNW 59mi, 95km
Updated: Sun, 28-May-2017 11:53pm CDT
Clear
Clear
 Wind from NNW
Wind: NNW 3 mph , 6 km/h
Temperature: 59°F , 15°C
Dew Point: 52°F , 11°C
Humidity: 77%
Barometer: 29.92 inHg , 1013.2 hPa
Clouds: Clear
Visibility: 10 miles , 16 km
2017/05/29 04:53 KSTJ 290453Z AUTO 33003KT 10SM CLR 15/11 A2992 RMK AO2 SLP125 T01500111
 
KGLY - Clinton, Missouri, USA
Distance from station: SE 61mi, 98km
Updated: Mon, 29-May-2017 12:35am CDT
Clear
Clear
 Wind from S
Wind: S 6 mph , 9 km/h
Temperature: 63°F , 17°C
Dew Point: 55°F , 13°C
Humidity: 77%
Barometer: 29.96 inHg , 1014.6 hPa
Clouds: Clear
Visibility: 10 miles , 16 km
2017/05/29 05:35 KGLY 290535Z AUTO 19005KT 10SM CLR 17/13 A2996 RMK AO2
KFOE - Topeka/Forbes, Kansas, USA
Distance from station: W 64mi, 103km
Updated: Sun, 28-May-2017 11:53pm CDT
Clear
Clear
 Wind from WNW
Wind: WNW 5 mph , 7 km/h
Temperature: 63°F , 17°C
Dew Point: 54°F , 12°C
Humidity: 73%
Barometer: 29.93 inHg , 1013.5 hPa
Clouds: Clear
Visibility: 10 miles , 16 km
2017/05/29 04:53 KFOE 290453Z AUTO 30004KT 10SM CLR 17/12 A2993 RMK AO2 SLP128 T01670117
 
KDMO - Sedalia, Missouri, USA
Distance from station: ESE 72mi, 116km
Updated: Sun, 28-May-2017 11:53pm CDT
Clear
Clear
 Wind from SSW
Wind: SSW 8 mph , 13 km/h
Temperature: 64°F , 18°C
Dew Point: 57°F , 14°C
Humidity: 78%
Barometer: 29.93 inHg , 1013.5 hPa
Clouds: Clear
Visibility: 10 miles , 16 km
2017/05/29 04:53 KDMO 290453Z AUTO 21007KT 10SM CLR 18/14 A2993 RMK AO2 SLP129 T01780139
KCDJ - Chillicothe, Missouri, USA
Distance from station: NE 74mi, 120km
Updated: Sun, 28-May-2017 11:52pm CDT

 Wind from calm
Wind: Calm
Temperature: 64°F , 18°C
Dew Point: 48°F , 9°C
Humidity: 56%
Barometer: 29.91 inHg , 1012.9 hPa
2017/05/29 04:52 KCDJ 290452Z AUTO 00000KT 18/09 A2991 RMK AO1 SLP119 T01830089
 
KFNB - Falls City/Brenn, Nebraska, USA
Distance from station: NW 96mi, 154km
Updated: Sun, 28-May-2017 11:53pm CDT
Clear
Clear
 Wind from WSW
Wind: WSW 6 mph , 9 km/h
Temperature: 61°F , 16°C
Dew Point: 45°F , 7°C
Humidity: 55%
Barometer: 29.91 inHg , 1012.9 hPa
Clouds: Clear
Visibility: 10 miles , 16 km
2017/05/29 04:53 KFNB 290453Z AUTO 24005KT 10SM CLR 16/07 A2991 RMK AO2 SLP122 T01610072
KVER - Boonville, Missouri, USA
Distance from station: E 96mi, 154km
Updated: Mon, 29-May-2017 12:35am CDT
Clear
Clear
 Wind from SSW
Wind: SSW 5 mph , 7 km/h
Temperature: 63°F , 17°C
Dew Point: 54°F , 12°C
Humidity: 73%
Barometer: 29.92 inHg , 1013.2 hPa
Clouds: Clear
Visibility: 10 miles , 16 km
2017/05/29 05:35 KVER 290535Z AUTO 21004KT 10SM CLR 17/12 A2992 RMK AO2 T01660116